Time;durP1;ratioP1;P1;durP2;ratioP2;P2;SDS_P1;SDS_P2;PMS_P1;PMS_P2;Temp;Humidity;BMP_temperature;BMP_pressure;BME280_temperature;BME280_humidity;BME280_pressure;Samples;Min_cycle;Max_cycle;Signal;HPM_P1;HPM_P2
2022/01/23 00:20:16;;;;;;;3.50;2.90;;;;;;;;;;4507970;28;20216;-63
2022/01/23 00:22:46;;;;;;;4.15;2.85;;;;;;;;;;4212799;34;20120;-61
2022/01/23 00:30:44;;;;;;;4.62;2.97;;;;;;;;;;4216360;34;20114;-61
2022/01/23 00:33:11;;;;;;;3.90;2.75;;;;;;;;;;4219157;33;20224;-62
2022/01/23 00:35:39;;;;;;;3.50;3.10;;;;;;;;;;4219164;33;20121;-62
2022/01/23 00:38:07;;;;;;;5.43;3.08;;;;;;;;;;4214117;33;20110;-61
2022/01/23 00:40:34;;;;;;;5.60;3.00;;;;;;;;;;4204977;34;20098;-61
2022/01/23 00:43:01;;;;;;;3.60;2.70;;;;;;;;;;4205176;34;20102;-60
2022/01/23 00:48:04;;;;;;;3.92;2.83;;;;;;;;;;4204950;34;20112;-62
2022/01/23 00:50:32;;;;;;;6.82;2.90;;;;;;;;;;4204926;34;20114;-61
2022/01/23 00:52:59;;;;;;;2.80;2.30;;;;;;;;;;4205052;34;20129;-61
2022/01/23 00:55:25;;;;;;;3.78;2.70;;;;;;;;;;4211230;34;20542;-61
2022/01/23 00:57:51;;;;;;;4.15;2.60;;;;;;;;;;4218906;33;20529;-62
2022/01/23 01:00:17;;;;;;;3.20;2.90;;;;;;;;;;4218675;33;20113;-61
2022/01/23 01:02:43;;;;;;;3.97;2.83;;;;;;;;;;4218918;33;20557;-61
2022/01/23 01:05:10;;;;;;;5.37;2.87;;;;;;;;;;4218775;33;20566;-61
2022/01/23 01:07:36;;;;;;;3.83;2.70;;;;;;;;;;4217567;34;20168;-61
2022/01/23 01:10:08;;;;;;;4.22;2.70;;;;;;;;;;4218920;33;20125;-62
2022/01/23 01:12:42;;;;;;;3.03;2.70;;;;;;;;;;4217460;34;20100;-61
2022/01/23 01:33:54;;;;;;;2.83;2.47;;;;;;;;;;4204901;34;20117;-68
2022/01/23 01:36:26;;;;;;;6.95;3.10;;;;;;;;;;4204768;34;20102;-68
2022/01/23 01:38:53;;;;;;;3.80;2.90;;;;;;;;;;4204420;34;20193;-68
2022/01/23 01:41:19;;;;;;;3.12;2.60;;;;;;;;;;4203965;34;20547;-68
2022/01/23 01:43:49;;;;;;;3.60;2.60;;;;;;;;;;4204666;34;20114;-67
2022/01/23 01:46:15;;;;;;;3.92;2.65;;;;;;;;;;4204635;34;20213;-67
2022/01/23 01:48:42;;;;;;;2.90;2.60;;;;;;;;;;4204656;34;20144;-67
2022/01/23 01:51:14;;;;;;;5.75;2.58;;;;;;;;;;4204510;34;20126;-67
2022/01/23 01:53:41;;;;;;;3.45;2.58;;;;;;;;;;4214194;34;20155;-67
2022/01/23 01:56:07;;;;;;;3.85;2.60;;;;;;;;;;4220549;33;20094;-67
2022/01/23 02:09:30;;;;;;;3.58;2.65;;;;;;;;;;4218316;33;20152;-67
2022/01/23 02:14:57;;;;;;;4.90;2.95;;;;;;;;;;4216882;34;20121;-66
2022/01/23 02:51:03;;;;;;;2.80;2.50;;;;;;;;;;4204312;34;20122;-67
2022/01/23 02:56:14;;;;;;;3.10;2.80;;;;;;;;;;4206281;34;20110;-67
2022/01/23 02:58:55;;;;;;;3.35;2.70;;;;;;;;;;4204612;34;20119;-67
2022/01/23 03:01:23;;;;;;;3.10;2.65;;;;;;;;;;4205960;34;20539;-68
2022/01/23 03:03:57;;;;;;;2.92;2.50;;;;;;;;;;4205936;34;20201;-66
2022/01/23 03:06:40;;;;;;;2.83;2.30;;;;;;;;;;4205955;34;20109;-67
2022/01/23 03:12:07;;;;;;;2.92;2.40;;;;;;;;;;4206121;34;20196;-67
2022/01/23 03:30:34;;;;;;;4.68;2.90;;;;;;;;;;4219607;34;20110;-67
2022/01/23 03:33:00;;;;;;;3.08;2.70;;;;;;;;;;4219693;34;20100;-67
2022/01/23 03:35:26;;;;;;;4.05;3.00;;;;;;;;;;4219565;34;20523;-68
2022/01/23 03:37:52;;;;;;;5.28;3.00;;;;;;;;;;4219645;34;20510;-67
2022/01/23 03:40:19;;;;;;;5.32;2.85;;;;;;;;;;4218079;34;20438;-66
2022/01/23 03:42:48;;;;;;;5.80;3.15;;;;;;;;;;4219572;34;20107;-67
2022/01/23 03:49:30;;;;;;;3.53;2.60;;;;;;;;;;4219821;34;20097;-67
2022/01/23 03:50:39;;;;;;;3.67;2.75;;;;;;;;;;4219643;34;20192;-67
2022/01/23 03:53:06;;;;;;;4.15;2.70;;;;;;;;;;4206610;34;20676;-68
2022/01/23 03:55:32;;;;;;;4.20;2.55;;;;;;;;;;4217994;34;20124;-66
2022/01/23 03:57:58;;;;;;;3.80;3.33;;;;;;;;;;4206541;34;20121;-67
2022/01/23 04:00:25;;;;;;;5.25;2.92;;;;;;;;;;4219366;34;20158;-68
2022/01/23 04:02:51;;;;;;;4.18;2.60;;;;;;;;;;4205728;34;20125;-69
2022/01/23 04:05:17;;;;;;;3.05;2.50;;;;;;;;;;4206812;34;20102;-71
2022/01/23 04:07:43;;;;;;;3.92;2.67;;;;;;;;;;4218189;34;20113;-67
2022/01/23 04:10:12;;;;;;;4.93;2.58;;;;;;;;;;4219841;34;20121;-67
2022/01/23 04:21:17;;;;;;;3.78;2.72;;;;;;;;;;4187665;34;20130;-69
2022/01/23 04:45:32;;;;;;;5.10;2.65;;;;;;;;;;4216256;34;20114;-68
2022/01/23 05:06:59;;;;;;;3.00;2.70;;;;;;;;;;4208108;34;20109;-68
2022/01/23 05:09:26;;;;;;;4.20;3.08;;;;;;;;;;4217460;34;20273;-65
2022/01/23 05:12:05;;;;;;;3.65;2.97;;;;;;;;;;4218752;34;20093;-65
2022/01/23 05:14:39;;;;;;;5.20;3.05;;;;;;;;;;4217043;34;20487;-65
2022/01/23 05:17:07;;;;;;;3.47;2.90;;;;;;;;;;4218802;34;20288;-63
2022/01/23 05:19:34;;;;;;;4.72;3.42;;;;;;;;;;4218679;34;20210;-66
2022/01/23 05:24:36;;;;;;;4.72;3.45;;;;;;;;;;4206033;34;20114;-65
2022/01/23 05:27:06;;;;;;;3.85;3.35;;;;;;;;;;4217730;34;20109;-66
2022/01/23 05:29:32;;;;;;;3.60;3.05;;;;;;;;;;4218615;34;20129;-66
2022/01/23 05:31:58;;;;;;;3.30;2.85;;;;;;;;;;4218470;34;20458;-65
2022/01/23 05:34:25;;;;;;;3.87;3.10;;;;;;;;;;4218585;34;20198;-66
2022/01/23 05:36:52;;;;;;;4.45;3.28;;;;;;;;;;4218517;34;20439;-67
2022/01/23 05:39:21;;;;;;;4.12;3.00;;;;;;;;;;4218545;34;20213;-67
2022/01/23 05:41:52;;;;;;;4.72;2.72;;;;;;;;;;4206049;34;20553;-63
2022/01/23 05:44:19;;;;;;;3.10;2.80;;;;;;;;;;4218679;34;20132;-67
2022/01/23 05:46:45;;;;;;;3.40;2.62;;;;;;;;;;4218491;34;20201;-65
2022/01/23 05:49:11;;;;;;;3.55;2.90;;;;;;;;;;4218540;34;20430;-67
2022/01/23 05:51:37;;;;;;;3.20;2.67;;;;;;;;;;4218383;34;20516;-67
2022/01/23 05:54:03;;;;;;;4.90;2.85;;;;;;;;;;4218690;34;20180;-68
2022/01/23 05:56:29;;;;;;;4.97;3.08;;;;;;;;;;4205674;34;20224;-69
2022/01/23 05:58:56;;;;;;;3.60;3.05;;;;;;;;;;4216905;34;20117;-69
2022/01/23 06:01:22;;;;;;;5.00;3.67;;;;;;;;;;4205398;34;20536;-67
2022/01/23 06:03:48;;;;;;;3.72;3.17;;;;;;;;;;4218155;34;20124;-66
2022/01/23 06:06:14;;;;;;;3.40;2.70;;;;;;;;;;4218334;34;20565;-68
2022/01/23 06:08:40;;;;;;;4.80;3.15;;;;;;;;;;4218462;34;20116;-67
2022/01/23 06:11:06;;;;;;;4.07;2.80;;;;;;;;;;4218046;34;20196;-67
2022/01/23 06:13:33;;;;;;;4.85;3.33;;;;;;;;;;4216547;34;20117;-67
2022/01/23 06:15:59;;;;;;;4.15;2.72;;;;;;;;;;4216080;34;20216;-68
2022/01/23 06:18:25;;;;;;;3.58;2.62;;;;;;;;;;4214867;34;20482;-68
2022/01/23 06:20:51;;;;;;;2.37;2.17;;;;;;;;;;4215899;33;20148;-69
2022/01/23 06:23:18;;;;;;;3.20;2.53;;;;;;;;;;4191846;34;20205;-69
2022/01/23 06:25:45;;;;;;;3.10;2.30;;;;;;;;;;4217154;34;20140;-67
2022/01/23 06:28:15;;;;;;;3.22;2.92;;;;;;;;;;4218162;34;20113;-73
2022/01/23 06:30:41;;;;;;;2.60;2.40;;;;;;;;;;4216485;34;20227;-76
2022/01/23 06:33:07;;;;;;;3.35;2.30;;;;;;;;;;4216693;34;20208;-76
2022/01/23 06:35:35;;;;;;;3.60;2.60;;;;;;;;;;4193608;34;20117;-76
2022/01/23 06:38:01;;;;;;;3.87;2.60;;;;;;;;;;4216909;34;20097;-71
2022/01/23 06:40:27;;;;;;;3.17;2.60;;;;;;;;;;4205035;34;20100;-70
2022/01/23 06:42:54;;;;;;;3.37;2.58;;;;;;;;;;4217895;34;20109;-67
2022/01/23 06:45:20;;;;;;;3.00;2.58;;;;;;;;;;4204852;34;20139;-71
2022/01/23 06:47:46;;;;;;;3.20;2.20;;;;;;;;;;4217809;34;20118;-75
2022/01/23 06:50:12;;;;;;;3.80;2.22;;;;;;;;;;4205092;34;20596;-75
2022/01/23 06:52:38;;;;;;;6.75;2.40;;;;;;;;;;4217780;34;20098;-76
2022/01/23 06:55:04;;;;;;;2.65;2.17;;;;;;;;;;4193290;34;20211;-77
2022/01/23 06:57:31;;;;;;;2.40;2.17;;;;;;;;;;4205030;34;20133;-75
2022/01/23 06:59:57;;;;;;;2.55;2.25;;;;;;;;;;4217617;34;20113;-72
2022/01/23 07:02:23;;;;;;;3.35;2.33;;;;;;;;;;4217649;34;20105;-73
2022/01/23 07:04:49;;;;;;;5.87;4.87;;;;;;;;;;4217538;34;20134;-70
2022/01/23 07:07:15;;;;;;;5.70;3.53;;;;;;;;;;4217699;34;20449;-71
2022/01/23 07:09:41;;;;;;;3.30;2.53;;;;;;;;;;4216181;34;20177;-71
2022/01/23 07:12:07;;;;;;;5.20;3.58;;;;;;;;;;4204908;34;20553;-72
2022/01/23 07:14:33;;;;;;;3.40;2.65;;;;;;;;;;4217515;34;20097;-70
2022/01/23 07:16:59;;;;;;;4.47;3.45;;;;;;;;;;4217514;34;20119;-72
2022/01/23 07:19:25;;;;;;;2.97;2.65;;;;;;;;;;4216229;34;20128;-72
2022/01/23 07:21:52;;;;;;;4.10;2.53;;;;;;;;;;4217370;34;20192;-71
2022/01/23 07:24:22;;;;;;;3.37;2.55;;;;;;;;;;4193418;34;20122;-72
2022/01/23 07:26:49;;;;;;;3.65;2.67;;;;;;;;;;4217455;34;20607;-68
2022/01/23 07:29:17;;;;;;;4.00;2.95;;;;;;;;;;4204500;34;20251;-69
2022/01/23 07:31:56;;;;;;;4.03;2.80;;;;;;;;;;4204701;34;20106;-67
2022/01/23 07:34:22;;;;;;;3.30;2.70;;;;;;;;;;4217474;34;20295;-67
2022/01/23 07:36:48;;;;;;;3.92;2.72;;;;;;;;;;4217675;34;20112;-66
2022/01/23 07:39:14;;;;;;;3.17;2.67;;;;;;;;;;4219509;34;20168;-67
2022/01/23 07:41:40;;;;;;;2.92;2.47;;;;;;;;;;4218286;34;20125;-67
2022/01/23 07:44:06;;;;;;;3.12;2.75;;;;;;;;;;4219611;34;20109;-69
2022/01/23 07:46:32;;;;;;;3.30;2.00;;;;;;;;;;4218007;34;20222;-70
2022/01/23 07:48:59;;;;;;;3.25;2.40;;;;;;;;;;4218332;34;20104;-70
2022/01/23 07:51:25;;;;;;;4.20;3.30;;;;;;;;;;4219906;34;20196;-68
2022/01/23 07:53:51;;;;;;;3.65;2.60;;;;;;;;;;4219221;34;20138;-67
2022/01/23 07:56:17;;;;;;;3.60;2.40;;;;;;;;;;4206548;34;20128;-68
2022/01/23 07:58:44;;;;;;;2.70;2.12;;;;;;;;;;4219236;34;20184;-70
2022/01/23 08:01:10;;;;;;;5.32;2.55;;;;;;;;;;4206378;34;20477;-68
2022/01/23 08:03:36;;;;;;;4.97;2.78;;;;;;;;;;4218069;34;20450;-71
2022/01/23 08:06:02;;;;;;;4.72;2.55;;;;;;;;;;4219499;34;20114;-68
2022/01/23 08:08:28;;;;;;;2.90;2.42;;;;;;;;;;4217781;34;20124;-70
2022/01/23 08:10:54;;;;;;;3.55;2.53;;;;;;;;;;4217735;34;20194;-71
2022/01/23 08:13:20;;;;;;;3.90;2.35;;;;;;;;;;4217763;34;20506;-68
2022/01/23 08:15:46;;;;;;;3.78;2.65;;;;;;;;;;4219369;34;20117;-74
2022/01/23 08:18:15;;;;;;;4.53;2.62;;;;;;;;;;4206456;34;20164;-76
2022/01/23 08:20:42;;;;;;;3.50;2.78;;;;;;;;;;4219036;33;20114;-71
2022/01/23 08:23:08;;;;;;;4.28;2.87;;;;;;;;;;4206084;34;20117;-67
2022/01/23 08:25:34;;;;;;;3.42;2.67;;;;;;;;;;4219179;34;20625;-67
2022/01/23 08:28:01;;;;;;;2.83;2.20;;;;;;;;;;4219080;34;20101;-66
2022/01/23 08:30:28;;;;;;;2.22;2.03;;;;;;;;;;4194718;34;20116;-66
2022/01/23 08:32:54;;;;;;;3.15;2.53;;;;;;;;;;4219090;34;20125;-66
2022/01/23 08:35:20;;;;;;;2.97;2.40;;;;;;;;;;4219482;34;20224;-66
2022/01/23 08:37:46;;;;;;;4.00;3.28;;;;;;;;;;4219028;34;20533;-66
2022/01/23 08:40:19;;;;;;;3.00;2.70;;;;;;;;;;4219397;34;20124;-67
2022/01/23 08:42:45;;;;;;;3.53;2.87;;;;;;;;;;4219118;34;20109;-66
2022/01/23 08:45:12;;;;;;;5.57;3.12;;;;;;;;;;4217526;34;20105;-66
2022/01/23 08:47:38;;;;;;;3.17;2.70;;;;;;;;;;4219024;34;20090;-65
2022/01/23 08:50:05;;;;;;;3.80;2.87;;;;;;;;;;4218655;34;20121;-66
2022/01/23 08:52:31;;;;;;;3.70;2.95;;;;;;;;;;4218963;34;20387;-64
2022/01/23 08:54:57;;;;;;;4.22;3.20;;;;;;;;;;4218815;34;20641;-65
2022/01/23 08:57:24;;;;;;;4.68;3.80;;;;;;;;;;4218862;34;20116;-65
2022/01/23 08:59:50;;;;;;;4.90;3.03;;;;;;;;;;4218628;34;20121;-66
2022/01/23 09:02:17;;;;;;;3.40;2.80;;;;;;;;;;4217392;34;20510;-65
2022/01/23 09:04:47;;;;;;;4.32;3.30;;;;;;;;;;4218895;34;20173;-64
2022/01/23 09:07:13;;;;;;;4.87;4.18;;;;;;;;;;4217745;34;20454;-63
2022/01/23 09:09:40;;;;;;;5.03;4.37;;;;;;;;;;4218857;34;20136;-63
2022/01/23 09:12:23;;;;;;;4.75;3.60;;;;;;;;;;4216936;34;20121;-65
2022/01/23 09:14:49;;;;;;;9.10;5.57;;;;;;;;;;4216914;34;20458;-64
2022/01/23 09:17:15;;;;;;;4.78;3.37;;;;;;;;;;4216814;34;20113;-65
2022/01/23 09:19:45;;;;;;;3.97;2.83;;;;;;;;;;4216438;34;20204;-64
2022/01/23 09:22:11;;;;;;;3.78;2.87;;;;;;;;;;4216364;34;20113;-64
2022/01/23 09:24:37;;;;;;;5.32;4.15;;;;;;;;;;4216668;34;20128;-65
2022/01/23 09:27:06;;;;;;;4.22;3.20;;;;;;;;;;4218330;34;20117;-66
2022/01/23 09:29:38;;;;;;;3.00;2.70;;;;;;;;;;4218497;34;20121;-65
2022/01/23 09:32:08;;;;;;;6.78;5.47;;;;;;;;;;4218619;34;20173;-65
2022/01/23 09:34:34;;;;;;;4.82;3.95;;;;;;;;;;4218818;34;20434;-66
2022/01/23 09:37:04;;;;;;;4.85;3.95;;;;;;;;;;4218379;34;20113;-65
2022/01/23 09:39:31;;;;;;;5.28;4.10;;;;;;;;;;4218159;34;20117;-66
2022/01/23 09:42:13;;;;;;;5.25;4.10;;;;;;;;;;4218451;34;20093;-65
2022/01/23 09:44:46;;;;;;;8.18;4.85;;;;;;;;;;4218357;34;20525;-65
2022/01/23 09:47:13;;;;;;;5.25;4.75;;;;;;;;;;4218469;34;20109;-65
2022/01/23 09:49:40;;;;;;;4.43;3.67;;;;;;;;;;4218349;34;20133;-65
2022/01/23 09:52:07;;;;;;;5.10;3.87;;;;;;;;;;4218706;34;20112;-65
2022/01/23 09:54:34;;;;;;;6.82;4.28;;;;;;;;;;4218311;34;20216;-68
2022/01/23 09:57:02;;;;;;;5.55;4.28;;;;;;;;;;4205498;34;20105;-66
2022/01/23 09:59:29;;;;;;;5.43;4.05;;;;;;;;;;4216971;34;20121;-72
2022/01/23 10:01:56;;;;;;;7.60;4.93;;;;;;;;;;4204300;34;20117;-62
2022/01/23 10:04:24;;;;;;;5.90;4.87;;;;;;;;;;4218214;34;20121;-66
2022/01/23 10:06:50;;;;;;;6.22;4.10;;;;;;;;;;4218290;34;20111;-64
2022/01/23 10:09:16;;;;;;;5.60;3.90;;;;;;;;;;4218247;34;20125;-65
2022/01/23 10:11:43;;;;;;;6.57;4.57;;;;;;;;;;4218337;34;20224;-66
2022/01/23 10:14:10;;;;;;;4.72;4.12;;;;;;;;;;4193844;34;20185;-66
2022/01/23 10:16:36;;;;;;;5.10;3.65;;;;;;;;;;4218240;34;20209;-66
2022/01/23 10:19:04;;;;;;;5.30;4.07;;;;;;;;;;4205198;34;20086;-66
2022/01/23 10:21:32;;;;;;;6.12;4.75;;;;;;;;;;4218134;34;20086;-66
2022/01/23 10:23:59;;;;;;;6.28;5.37;;;;;;;;;;4204904;34;20173;-64
2022/01/23 10:26:38;;;;;;;5.93;4.22;;;;;;;;;;4216590;34;20105;-64
2022/01/23 10:29:26;;;;;;;6.65;4.65;;;;;;;;;;4216416;34;20105;-64
2022/01/23 10:32:21;;;;;;;5.15;4.45;;;;;;;;;;4217909;34;20568;-63
2022/01/23 10:34:57;;;;;;;7.47;5.15;;;;;;;;;;4217825;34;20608;-66
2022/01/23 10:37:41;;;;;;;6.93;5.22;;;;;;;;;;4205057;34;20100;-66
2022/01/23 10:40:28;;;;;;;5.60;4.70;;;;;;;;;;4218326;34;20502;-66
2022/01/23 10:51:17;;;;;;;6.78;4.87;;;;;;;;;;4217786;34;20478;-66
2022/01/23 10:54:07;;;;;;;7.28;5.18;;;;;;;;;;4217653;34;20536;-67
2022/01/23 10:56:59;;;;;;;7.90;6.70;;;;;;;;;;4217425;34;20171;-66
2022/01/23 10:59:27;;;;;;;6.72;4.72;;;;;;;;;;4217873;34;20654;-65
2022/01/23 11:02:02;;;;;;;5.80;4.75;;;;;;;;;;4204627;34;20235;-65
2022/01/23 11:04:29;;;;;;;7.37;6.00;;;;;;;;;;4217796;34;20113;-65
2022/01/23 11:07:00;;;;;;;7.78;5.57;;;;;;;;;;4217768;34;20113;-65
2022/01/23 11:09:31;;;;;;;11.18;8.10;;;;;;;;;;4204607;34;20461;-65
2022/01/23 11:12:03;;;;;;;6.95;5.20;;;;;;;;;;4217852;34;20109;-64
2022/01/23 11:17:24;;;;;;;7.35;5.40;;;;;;;;;;4219853;34;20616;-64
2022/01/23 11:19:56;;;;;;;5.28;3.92;;;;;;;;;;4219502;34;20105;-65
2022/01/23 11:22:28;;;;;;;6.60;4.78;;;;;;;;;;4218329;34;20166;-65
2022/01/23 11:24:58;;;;;;;7.62;5.05;;;;;;;;;;4219826;34;20135;-64
2022/01/23 11:27:34;;;;;;;6.45;4.62;;;;;;;;;;4219867;34;20101;-66
2022/01/23 11:30:10;;;;;;;;;;;;;;;;;;4220215;34;20209;-66
2022/01/23 11:32:39;;;;;;;7.05;5.30;;;;;;;;;;4218497;34;20063;-68
2022/01/23 11:35:12;;;;;;;7.55;6.03;;;;;;;;;;4218232;34;20517;-65
2022/01/23 11:37:51;;;;;;;10.93;6.80;;;;;;;;;;4217538;34;20115;-66
2022/01/23 11:54:03;;;;;;;10.70;7.32;;;;;;;;;;4218127;34;20093;-62
2022/01/23 11:56:40;;;;;;;10.23;8.57;;;;;;;;;;4219542;34;20221;-64
2022/01/23 11:59:32;;;;;;;11.77;8.68;;;;;;;;;;4219441;34;20173;-66
2022/01/23 12:02:14;;;;;;;9.05;7.30;;;;;;;;;;4219386;34;20113;-67
2022/01/23 12:04:43;;;;;;;9.80;7.20;;;;;;;;;;4219394;34;20128;-65
2022/01/23 12:07:13;;;;;;;9.13;6.50;;;;;;;;;;4206292;34;20290;-65
2022/01/23 12:09:42;;;;;;;7.85;6.25;;;;;;;;;;4219276;34;20094;-66
2022/01/23 12:12:34;;;;;;;8.82;6.50;;;;;;;;;;4219263;34;20097;-64
2022/01/23 12:18:15;;;;;;;12.85;8.13;;;;;;;;;;4219317;34;20123;-65
2022/01/23 12:20:43;;;;;;;10.00;7.28;;;;;;;;;;4219279;34;20525;-65
2022/01/23 12:23:09;;;;;;;10.00;7.97;;;;;;;;;;4218664;34;20160;-64
2022/01/23 12:25:44;;;;;;;11.30;8.05;;;;;;;;;;4218892;34;20120;-66
2022/01/23 12:28:20;;;;;;;9.98;7.28;;;;;;;;;;4219119;34;20114;-64
2022/01/23 12:30:48;;;;;;;9.98;7.32;;;;;;;;;;4217945;34;20093;-65
2022/01/23 12:33:32;;;;;;;9.20;7.05;;;;;;;;;;4219355;34;20111;-65
2022/01/23 12:36:26;;;;;;;9.07;6.87;;;;;;;;;;4219048;34;20121;-65
2022/01/23 12:39:07;;;;;;;14.85;9.10;;;;;;;;;;4205957;34;20523;-65
2022/01/23 12:41:34;;;;;;;10.05;7.78;;;;;;;;;;4219009;34;20124;-66
2022/01/23 12:44:22;;;;;;;9.95;7.55;;;;;;;;;;4218812;34;20112;-67
2022/01/23 12:46:53;;;;;;;9.52;7.22;;;;;;;;;;4218766;34;20509;-68
2022/01/23 12:49:29;;;;;;;8.65;7.75;;;;;;;;;;4219303;34;20112;-64
2022/01/23 12:52:13;;;;;;;10.13;7.03;;;;;;;;;;4206056;34;20544;-67
2022/01/23 12:54:51;;;;;;;8.55;6.15;;;;;;;;;;4208338;34;20109;-67
2022/01/23 12:57:24;;;;;;;8.52;6.10;;;;;;;;;;4216530;34;20125;-67
2022/01/23 12:59:56;;;;;;;8.57;5.85;;;;;;;;;;4195668;34;20189;-68
2022/01/23 13:02:25;;;;;;;6.22;5.60;;;;;;;;;;4215694;34;20094;-68
2022/01/23 13:04:53;;;;;;;8.05;6.20;;;;;;;;;;4210964;34;20591;-66
2022/01/23 13:13:22;;;;;;;9.38;8.00;;;;;;;;;;4202943;34;20134;-69
2022/01/23 13:15:57;;;;;;;8.48;7.57;;;;;;;;;;4206031;34;20628;-68
2022/01/23 13:26:39;;;;;;;9.60;7.60;;;;;;;;;;4217895;34;20117;-68
2022/01/23 13:32:06;;;;;;;7.28;5.43;;;;;;;;;;4217008;34;20637;-67
2022/01/23 13:34:35;;;;;;;6.90;5.70;;;;;;;;;;4204108;34;20213;-66
2022/01/23 13:37:11;;;;;;;7.03;5.05;;;;;;;;;;4217886;34;20103;-70
2022/01/23 13:39:52;;;;;;;16.05;5.90;;;;;;;;;;4216927;34;20136;-71
2022/01/23 13:42:35;;;;;;;7.93;5.03;;;;;;;;;;4218376;34;20169;-71
2022/01/23 13:53:51;;;;;;;9.40;8.00;;;;;;;;;;4200128;34;20193;-76
2022/01/23 13:59:16;;;;;;;7.25;6.25;;;;;;;;;;4203910;34;20541;-70
2022/01/23 14:04:24;;;;;;;8.25;6.40;;;;;;;;;;4206436;34;20514;-70
2022/01/23 14:06:50;;;;;;;8.32;6.82;;;;;;;;;;4204150;34;20114;-70
2022/01/23 14:09:17;;;;;;;8.77;6.82;;;;;;;;;;4204913;34;20522;-70
2022/01/23 14:11:44;;;;;;;11.57;7.50;;;;;;;;;;4193729;34;20122;-72
2022/01/23 14:14:22;;;;;;;8.98;6.72;;;;;;;;;;4217652;34;20189;-75
2022/01/23 14:16:50;;;;;;;8.70;6.87;;;;;;;;;;4193389;34;20121;-72
2022/01/23 14:19:22;;;;;;;9.43;6.68;;;;;;;;;;4217608;34;20097;-71
2022/01/23 14:21:53;;;;;;;9.10;7.43;;;;;;;;;;4205269;34;20113;-70
2022/01/23 14:24:28;;;;;;;10.32;7.47;;;;;;;;;;4204597;34;20449;-68
2022/01/23 14:27:10;;;;;;;10.07;7.75;;;;;;;;;;4203539;34;20128;-71
2022/01/23 14:29:53;;;;;;;12.40;8.65;;;;;;;;;;4205061;34;20102;-72
2022/01/23 14:32:35;;;;;;;12.98;10.18;;;;;;;;;;4193471;34;20132;-70
2022/01/23 14:35:08;;;;;;;16.15;13.23;;;;;;;;;;4193429;34;20136;-72
2022/01/23 14:37:35;;;;;;;16.30;12.50;;;;;;;;;;4193185;34;20094;-75
2022/01/23 14:40:20;;;;;;;11.95;9.50;;;;;;;;;;4193461;34;20128;-69
2022/01/23 14:43:08;;;;;;;14.00;10.25;;;;;;;;;;4217357;34;20552;-68
2022/01/23 14:45:40;;;;;;;10.82;8.25;;;;;;;;;;4217863;34;20144;-68
2022/01/23 14:48:08;;;;;;;11.93;8.30;;;;;;;;;;4205675;34;20189;-69
2022/01/23 14:50:38;;;;;;;11.12;8.45;;;;;;;;;;4195174;34;20109;-72
2022/01/23 14:53:12;;;;;;;11.02;7.72;;;;;;;;;;4218264;34;20094;-72
2022/01/23 14:55:40;;;;;;;11.57;8.02;;;;;;;;;;4195433;34;20109;-71
2022/01/23 14:58:12;;;;;;;13.45;10.55;;;;;;;;;;4192408;34;20506;-70
2022/01/23 15:00:39;;;;;;;18.70;14.00;;;;;;;;;;4205966;34;20125;-71
2022/01/23 15:03:06;;;;;;;10.55;8.27;;;;;;;;;;4192190;34;20209;-72
2022/01/23 15:05:34;;;;;;;10.63;7.87;;;;;;;;;;4193065;34;20223;-69
2022/01/23 15:08:00;;;;;;;10.15;7.62;;;;;;;;;;4192705;34;20129;-71
2022/01/23 15:10:28;;;;;;;15.52;13.40;;;;;;;;;;4192960;34;20106;-74
2022/01/23 15:12:54;;;;;;;8.75;6.47;;;;;;;;;;4192801;34;20189;-73
2022/01/23 15:15:20;;;;;;;9.02;7.05;;;;;;;;;;4205488;34;20116;-76
2022/01/23 15:17:46;;;;;;;9.38;7.10;;;;;;;;;;4192693;34;20085;-73
2022/01/23 15:20:12;;;;;;;10.68;7.75;;;;;;;;;;4192958;34;20102;-74
2022/01/23 15:22:38;;;;;;;11.05;7.47;;;;;;;;;;4208501;34;20096;-76
2022/01/23 15:25:08;;;;;;;8.63;7.43;;;;;;;;;;4219579;34;20984;-74
2022/01/23 15:27:35;;;;;;;11.65;6.65;;;;;;;;;;4206513;34;20092;-76
2022/01/23 15:30:01;;;;;;;9.25;6.57;;;;;;;;;;4219204;34;20133;-71
2022/01/23 15:32:27;;;;;;;7.07;6.32;;;;;;;;;;4206394;34;20106;-71
2022/01/23 15:34:53;;;;;;;9.95;6.55;;;;;;;;;;4219065;34;20200;-70
2022/01/23 15:37:19;;;;;;;9.23;6.93;;;;;;;;;;4206412;34;20089;-70
2022/01/23 15:39:46;;;;;;;10.25;7.18;;;;;;;;;;4218616;34;20102;-71
2022/01/23 15:42:12;;;;;;;11.02;7.20;;;;;;;;;;4207596;34;20133;-69
2022/01/23 15:44:40;;;;;;;9.27;6.40;;;;;;;;;;4215321;34;20190;-70
2022/01/23 15:47:06;;;;;;;7.12;5.10;;;;;;;;;;4203558;34;20117;-70
2022/01/23 15:49:32;;;;;;;9.10;6.55;;;;;;;;;;4215526;34;20100;-70
2022/01/23 15:51:58;;;;;;;7.90;5.78;;;;;;;;;;4216433;34;20109;-69
2022/01/23 15:54:25;;;;;;;7.70;5.68;;;;;;;;;;4218711;34;20116;-69
2022/01/23 15:56:52;;;;;;;8.32;6.15;;;;;;;;;;4208177;34;20141;-76
2022/01/23 15:59:20;;;;;;;8.32;5.70;;;;;;;;;;4191520;34;20095;-73
2022/01/23 16:01:49;;;;;;;7.55;6.15;;;;;;;;;;4192295;34;20110;-72
2022/01/23 16:04:20;;;;;;;8.48;5.90;;;;;;;;;;4180885;34;20097;-72
2022/01/23 16:06:46;;;;;;;8.45;6.18;;;;;;;;;;4192394;34;20197;-74
2022/01/23 16:09:12;;;;;;;9.85;7.45;;;;;;;;;;4205724;34;20106;-68
2022/01/23 16:11:39;;;;;;;12.75;6.68;;;;;;;;;;4205061;34;20125;-70
2022/01/23 16:14:05;;;;;;;11.77;5.93;;;;;;;;;;4204765;34;20113;-72
2022/01/23 16:16:31;;;;;;;10.57;6.35;;;;;;;;;;4205480;34;20097;-76
2022/01/23 16:18:57;;;;;;;10.52;6.70;;;;;;;;;;4180195;34;20104;-73
2022/01/23 16:21:25;;;;;;;9.63;7.03;;;;;;;;;;4204991;34;20110;-73
2022/01/23 16:23:51;;;;;;;8.70;6.53;;;;;;;;;;4201909;34;20121;-70
2022/01/23 16:26:18;;;;;;;8.57;5.87;;;;;;;;;;4219171;34;20128;-70
2022/01/23 16:28:46;;;;;;;9.80;6.47;;;;;;;;;;4194259;34;20120;-70
2022/01/23 16:31:13;;;;;;;10.15;7.12;;;;;;;;;;4218800;34;20165;-71
2022/01/23 16:33:39;;;;;;;12.35;7.87;;;;;;;;;;4218545;34;20105;-69
2022/01/23 16:36:06;;;;;;;8.55;7.40;;;;;;;;;;4205906;34;20121;-73
2022/01/23 16:38:33;;;;;;;10.68;7.75;;;;;;;;;;4182754;34;20171;-73
2022/01/23 16:40:59;;;;;;;10.80;7.03;;;;;;;;;;4205351;34;20202;-74
2022/01/23 16:43:27;;;;;;;10.35;7.18;;;;;;;;;;4205727;34;20442;-75
2022/01/23 16:45:55;;;;;;;10.27;6.95;;;;;;;;;;4205905;34;20113;-70
2022/01/23 16:48:22;;;;;;;10.90;7.70;;;;;;;;;;4205641;34;20105;-75
2022/01/23 16:50:48;;;;;;;11.48;7.03;;;;;;;;;;4205075;34;20097;-74
2022/01/23 16:53:14;;;;;;;8.93;6.47;;;;;;;;;;4204337;34;20097;-75
2022/01/23 16:55:41;;;;;;;11.02;6.32;;;;;;;;;;4205963;34;20147;-69
2022/01/23 16:58:07;;;;;;;9.65;6.45;;;;;;;;;;4219061;34;20129;-74
2022/01/23 17:00:33;;;;;;;8.48;6.40;;;;;;;;;;4204046;34;20498;-75
2022/01/23 17:03:00;;;;;;;7.87;6.05;;;;;;;;;;4203685;34;20205;-76
2022/01/23 17:05:27;;;;;;;9.75;6.50;;;;;;;;;;4216422;34;20113;-75
2022/01/23 17:07:53;;;;;;;9.55;7.18;;;;;;;;;;4203939;34;20536;-75
2022/01/23 17:10:19;;;;;;;9.05;6.50;;;;;;;;;;4203474;34;20121;-76
2022/01/23 17:12:45;;;;;;;9.73;6.32;;;;;;;;;;4216983;34;20133;-76
2022/01/23 17:15:11;;;;;;;8.70;6.32;;;;;;;;;;4204008;34;20107;-77
2022/01/23 17:17:37;;;;;;;9.27;5.82;;;;;;;;;;4204355;34;20610;-75
2022/01/23 17:20:04;;;;;;;11.20;6.97;;;;;;;;;;4217571;34;20196;-74
2022/01/23 17:22:30;;;;;;;10.85;6.25;;;;;;;;;;4216996;34;20120;-77
2022/01/23 17:24:56;;;;;;;8.90;6.00;;;;;;;;;;4219014;34;20116;-74
2022/01/23 17:27:23;;;;;;;9.80;6.65;;;;;;;;;;4218260;34;20109;-71
2022/01/23 17:29:51;;;;;;;10.23;6.30;;;;;;;;;;4205737;34;20132;-71
2022/01/23 17:32:20;;;;;;;8.60;6.32;;;;;;;;;;4217087;34;20190;-73
2022/01/23 17:34:46;;;;;;;8.57;5.93;;;;;;;;;;4205534;34;20529;-73
2022/01/23 17:37:12;;;;;;;9.40;6.55;;;;;;;;;;4217389;34;20182;-72
2022/01/23 17:39:39;;;;;;;9.50;6.62;;;;;;;;;;4218550;34;20114;-75
2022/01/23 17:42:07;;;;;;;8.98;6.28;;;;;;;;;;4217114;34;20499;-73
2022/01/23 17:44:36;;;;;;;7.50;5.60;;;;;;;;;;4206024;34;20153;-74
2022/01/23 17:47:19;;;;;;;8.55;6.10;;;;;;;;;;4219132;34;20209;-76
2022/01/23 17:49:54;;;;;;;9.27;6.95;;;;;;;;;;4218441;34;20109;-72
2022/01/23 17:52:21;;;;;;;10.32;6.57;;;;;;;;;;4218568;34;20125;-72
2022/01/23 17:54:47;;;;;;;8.85;6.40;;;;;;;;;;4217301;34;20200;-72
2022/01/23 17:57:13;;;;;;;8.40;6.47;;;;;;;;;;4218556;34;20105;-77
2022/01/23 17:59:39;;;;;;;12.18;7.35;;;;;;;;;;4218358;34;20145;-76
2022/01/23 18:02:05;;;;;;;9.57;7.05;;;;;;;;;;4218358;34;20605;-72
2022/01/23 18:04:31;;;;;;;8.88;6.97;;;;;;;;;;4217010;34;20548;-72
2022/01/23 18:07:04;;;;;;;10.75;6.18;;;;;;;;;;4218235;34;20117;-78
2022/01/23 18:09:30;;;;;;;9.43;6.68;;;;;;;;;;4217852;34;20200;-73
2022/01/23 18:11:56;;;;;;;8.32;6.97;;;;;;;;;;4205238;34;20121;-76
2022/01/23 18:14:23;;;;;;;8.32;6.75;;;;;;;;;;4217884;34;20110;-75
2022/01/23 18:16:49;;;;;;;9.30;7.12;;;;;;;;;;4203965;34;20104;-75
2022/01/23 18:19:15;;;;;;;8.13;6.90;;;;;;;;;;4218087;34;20188;-75
2022/01/23 18:21:41;;;;;;;11.02;6.70;;;;;;;;;;4189657;34;20175;-71
2022/01/23 18:24:08;;;;;;;8.98;7.32;;;;;;;;;;4217842;34;20487;-73
2022/01/23 18:26:39;;;;;;;9.68;6.85;;;;;;;;;;4204387;34;20127;-72
2022/01/23 18:29:06;;;;;;;9.00;7.00;;;;;;;;;;4217592;34;20204;-75
2022/01/23 18:31:33;;;;;;;10.00;6.75;;;;;;;;;;4185543;34;20093;-68
2022/01/23 18:34:00;;;;;;;9.75;6.75;;;;;;;;;;4203940;34;20125;-73
2022/01/23 18:36:31;;;;;;;8.80;6.53;;;;;;;;;;4204012;34;20145;-71
2022/01/23 18:38:59;;;;;;;7.95;6.15;;;;;;;;;;4168315;34;20118;-77
2022/01/23 18:41:27;;;;;;;8.25;6.28;;;;;;;;;;4190524;34;20141;-78